TimeCST,TemperatureF,Dew PointF,Humidity,Sea Level PressureIn,VisibilityMPH,Wind Direction,Wind SpeedMPH,Gust SpeedMPH,PrecipitationIn,Events,Conditions,WindDirDegrees,DateUTC
12:15 AM,53.6,46.4,77,29.97,10.0,ENE,6.9,-,N/A,,Clear,60,2013-02-24 06:15:00
12:35 AM,53.6,46.4,77,29.97,10.0,ENE,5.8,-,N/A,,Clear,70,2013-02-24 06:35:00
12:55 AM,53.6,46.4,77,29.97,10.0,ENE,6.9,-,N/A,,Clear,60,2013-02-24 06:55:00
1:15 AM,51.8,46.4,82,29.97,10.0,ENE,8.1,-,N/A,,Clear,60,2013-02-24 07:15:00
1:35 AM,51.8,46.4,82,29.97,10.0,NE,5.8,-,N/A,,Clear,50,2013-02-24 07:35:00
1:55 AM,51.8,46.4,82,29.96,10.0,NE,5.8,-,N/A,,Clear,50,2013-02-24 07:55:00
2:15 AM,51.8,46.4,82,29.96,10.0,NE,5.8,-,N/A,,Clear,40,2013-02-24 08:15:00
2:35 AM,51.8,44.6,76,29.95,10.0,NE,8.1,-,N/A,,Clear,40,2013-02-24 08:35:00
2:55 AM,50.0,44.6,82,29.94,10.0,ENE,6.9,-,N/A,,Clear,70,2013-02-24 08:55:00
3:15 AM,50.0,44.6,82,29.93,10.0,NE,6.9,-,N/A,,Clear,50,2013-02-24 09:15:00
3:35 AM,50.0,44.6,82,29.93,10.0,ENE,8.1,-,N/A,,Clear,70,2013-02-24 09:35:00
3:55 AM,50.0,44.6,82,29.92,10.0,ENE,6.9,-,N/A,,Clear,60,2013-02-24 09:55:00
4:15 AM,50.0,44.6,82,29.91,10.0,ENE,6.9,-,N/A,,Clear,60,2013-02-24 10:15:00
4:35 AM,50.0,44.6,82,29.91,10.0,ENE,6.9,-,N/A,,Clear,60,2013-02-24 10:35:00
4:55 AM,50.0,42.8,76,29.91,10.0,ENE,5.8,-,N/A,,Clear,60,2013-02-24 10:55:00
5:15 AM,50.0,44.6,82,29.92,10.0,ENE,6.9,-,N/A,,Clear,60,2013-02-24 11:15:00
5:35 AM,48.2,42.8,82,29.92,10.0,ENE,5.8,-,N/A,,Clear,60,2013-02-24 11:35:00
5:55 AM,48.2,42.8,82,29.93,10.0,ENE,4.6,-,N/A,,Clear,60,2013-02-24 11:55:00
6:15 AM,48.2,44.6,87,29.94,10.0,ENE,5.8,-,N/A,,Clear,60,2013-02-24 12:15:00
6:35 AM,46.4,44.6,93,29.94,10.0,NE,4.6,-,N/A,,Clear,50,2013-02-24 12:35:00
6:55 AM,46.4,44.6,93,29.95,10.0,NE,5.8,-,N/A,,Clear,40,2013-02-24 12:55:00
7:15 AM,48.2,44.6,87,29.96,10.0,NE,5.8,-,N/A,,Clear,50,2013-02-24 13:15:00
7:35 AM,50.0,44.6,82,29.96,10.0,ENE,6.9,-,N/A,,Clear,60,2013-02-24 13:35:00
7:55 AM,51.8,44.6,76,29.97,10.0,NE,6.9,-,N/A,,Clear,50,2013-02-24 13:55:00
8:15 AM,51.8,46.4,82,29.97,10.0,ENE,10.4,-,N/A,,Clear,60,2013-02-24 14:15:00
8:35 AM,53.6,46.4,77,29.98,10.0,East,9.2,-,N/A,,Clear,80,2013-02-24 14:35:00
8:55 AM,55.4,48.2,77,29.98,10.0,ENE,9.2,-,N/A,,Clear,60,2013-02-24 14:55:00
9:15 AM,55.4,48.2,77,29.97,10.0,ENE,10.4,-,N/A,,Clear,70,2013-02-24 15:15:00
9:35 AM,57.2,50.0,77,29.97,10.0,ENE,9.2,-,N/A,,Clear,60,2013-02-24 15:35:00
9:55 AM,59.0,50.0,72,29.98,10.0,ENE,10.4,-,N/A,,Clear,70,2013-02-24 15:55:00
10:15 AM,60.8,50.0,68,29.98,10.0,ENE,8.1,-,N/A,,Clear,60,2013-02-24 16:15:00
10:35 AM,60.8,50.0,68,29.98,10.0,East,8.1,-,N/A,,Clear,90,2013-02-24 16:35:00
10:55 AM,62.6,50.0,63,29.97,10.0,ENE,4.6,-,N/A,,Clear,70,2013-02-24 16:55:00
11:15 AM,62.6,50.0,63,29.96,10.0,ENE,6.9,-,N/A,,Clear,60,2013-02-24 17:15:00
11:35 AM,64.4,50.0,59,29.95,10.0,East,9.2,-,N/A,,Clear,80,2013-02-24 17:35:00
11:55 AM,64.4,50.0,59,29.93,10.0,NE,8.1,-,N/A,,Clear,40,2013-02-24 17:55:00
12:15 PM,66.2,50.0,56,29.93,10.0,ENE,9.2,-,N/A,,Clear,70,2013-02-24 18:15:00
12:35 PM,66.2,48.2,52,29.91,10.0,East,9.2,-,N/A,,Clear,80,2013-02-24 18:35:00
12:55 PM,68.0,50.0,52,29.90,10.0,East,10.4,-,N/A,,Clear,80,2013-02-24 18:55:00
1:15 PM,68.0,50.0,52,29.88,10.0,ENE,9.2,-,N/A,,Clear,60,2013-02-24 19:15:00
1:35 PM,68.0,50.0,52,29.87,10.0,ENE,6.9,-,N/A,,Scattered Clouds,60,2013-02-24 19:35:00
1:55 PM,69.8,50.0,49,29.86,10.0,ENE,8.1,-,N/A,,Scattered Clouds,60,2013-02-24 19:55:00
2:15 PM,68.0,50.0,52,29.86,10.0,ENE,8.1,-,N/A,,Mostly Cloudy,70,2013-02-24 20:15:00
2:35 PM,68.0,48.2,49,29.85,10.0,ENE,6.9,-,N/A,,Mostly Cloudy,70,2013-02-24 20:35:00
2:55 PM,68.0,50.0,52,29.83,10.0,ENE,5.8,-,N/A,,Scattered Clouds,60,2013-02-24 20:55:00
3:15 PM,68.0,50.0,52,29.83,10.0,ENE,10.4,-,N/A,,Mostly Cloudy,70,2013-02-24 21:15:00
3:35 PM,68.0,50.0,52,29.81,10.0,ENE,8.1,-,N/A,,Scattered Clouds,60,2013-02-24 21:35:00
3:55 PM,66.2,51.8,60,29.80,10.0,ENE,8.1,-,N/A,,Clear,70,2013-02-24 21:55:00
4:15 PM,66.2,51.8,60,29.80,10.0,ENE,6.9,-,N/A,,Scattered Clouds,60,2013-02-24 22:15:00
4:35 PM,64.4,51.8,64,29.80,10.0,East,9.2,-,N/A,,Scattered Clouds,80,2013-02-24 22:35:00
4:55 PM,64.4,51.8,64,29.80,10.0,East,5.8,-,N/A,,Scattered Clouds,80,2013-02-24 22:55:00
5:15 PM,64.4,51.8,64,29.78,10.0,NE,6.9,-,N/A,,Mostly Cloudy,50,2013-02-24 23:15:00
5:35 PM,64.4,53.6,68,29.77,10.0,East,6.9,-,N/A,,Mostly Cloudy,80,2013-02-24 23:35:00
5:55 PM,64.4,55.4,73,29.78,10.0,East,4.6,-,N/A,,Overcast,80,2013-02-24 23:55:00
6:15 PM,62.6,55.4,77,29.78,10.0,Calm,Calm,-,N/A,Thunderstorm,Overcast,0,2013-02-25 00:15:00
6:35 PM,62.6,55.4,77,29.78,10.0,Calm,Calm,-,N/A,,Overcast,0,2013-02-25 00:35:00
6:55 PM,62.6,53.6,72,29.77,10.0,ENE,4.6,-,N/A,,Overcast,60,2013-02-25 00:55:00
7:15 PM,62.6,55.4,77,29.79,10.0,East,3.5,-,N/A,Rain,Rain,90,2013-02-25 01:15:00
7:35 PM,60.8,57.2,88,29.77,10.0,North,4.6,-,0.01,Rain,Rain,10,2013-02-25 01:35:00
7:55 PM,60.8,57.2,88,29.78,10.0,ENE,4.6,-,0.02,Rain,Rain,70,2013-02-25 01:55:00
8:15 PM,60.8,57.2,88,29.77,10.0,NE,6.9,-,N/A,,Overcast,50,2013-02-25 02:15:00
8:35 PM,60.8,57.2,88,29.77,10.0,NNE,3.5,-,N/A,,Overcast,20,2013-02-25 02:35:00
8:55 PM,60.8,57.2,88,29.76,10.0,NE,5.8,-,N/A,,Overcast,50,2013-02-25 02:55:00
9:15 PM,60.8,59.0,94,29.76,10.0,ENE,6.9,-,N/A,,Overcast,70,2013-02-25 03:15:00
9:35 PM,60.8,59.0,94,29.75,10.0,ENE,5.8,-,N/A,,Overcast,70,2013-02-25 03:35:00
9:55 PM,60.8,59.0,94,29.74,10.0,North,-9999.0,-,N/A,,Overcast,0,2013-02-25 03:55:00
10:15 PM,60.8,59.0,94,29.73,10.0,ENE,8.1,-,N/A,,Scattered Clouds,70,2013-02-25 04:15:00
10:35 PM,60.8,60.8,100,29.72,7.0,ENE,9.2,-,N/A,,Mostly Cloudy,70,2013-02-25 04:35:00
10:55 PM,62.6,60.8,94,29.72,7.0,ENE,6.9,-,N/A,,Overcast,60,2013-02-25 04:55:00
11:15 PM,62.6,60.8,94,29.72,10.0,ENE,6.9,-,N/A,,Overcast,70,2013-02-25 05:15:00
11:35 PM,62.6,60.8,94,29.72,10.0,NE,3.5,-,N/A,,Overcast,50,2013-02-25 05:35:00